Terminal Aerodrome Forecast
Issued by NWS Charleston, SC

Current Version | Previous Version | Text Only | Print | Product List | Glossary On
Versions: 1 2 3 4 5 6 7 8 9 10 11 12 13 14 15 16 17
000
FTUS42 KCHS 292320
TAFSAV
TAF
KSAV 292320Z 3000/3024 09009KT P6SM SCT030
     FM300200 05004KT P6SM SCT015
     FM301300 07007KT P6SM VCSH SCT015 BKN035
     FM301700 11012G18KT P6SM VCSH SCT035 BKN050=

USA.gov is the U.S. government's official web portal to all federal, state and local government web resources and services.